Terminal Aerodrome Forecast
Issued by NWS Knoxville/Tri Cities, TN

Home | Current Version | Previous Version | Text Only | Print | Product List | Glossary On
Versions: 1 2 3 4 5 6 7 8 9 10 11 12 13 14 15 16 17 18 19 20 21 22 23 24 25 26 27 28 29 30 31 32 33 34 35 36 37 38 39
000
FTUS44 KMRX 050531
TAFCHA
TAF
KCHA 050531Z 0506/0606 36010KT P6SM SCT015 OVC025
      TEMPO 0506/0509 5SM -RA BR OVC015
     FM050900 36010KT 6SM -RA BR BKN015 OVC020
      TEMPO 0509/0513 3SM -SHRA BR OVC010
     FM051300 35012KT 4SM -DZ BR OVC008
     FM051600 01014KT 5SM -PL BR OVC016
     FM051900 35015KT P6SM OVC020
     FM052200 36010KT P6SM SCT020 OVC035=

USA.gov is the U.S. government's official web portal to all federal, state and local government web resources and services.